createdAt,value
2023-05-23T00:01:00.657Z,13.30
2023-05-23T00:03:28.868Z,13.20
2023-05-23T00:05:56.654Z,13.10
2023-05-23T00:08:23.569Z,13.20
2023-05-23T00:10:50.445Z,13.30
2023-05-23T00:13:17.682Z,13.50
2023-05-23T00:15:46.699Z,13.60
2023-05-23T00:18:13.568Z,13.60
2023-05-23T00:20:44.066Z,13.40
2023-05-23T00:23:13.856Z,13.50
2023-05-23T00:25:41.249Z,13.40
2023-05-23T00:28:08.335Z,13.50
2023-05-23T00:30:35.182Z,13.60
2023-05-23T00:33:02.474Z,14.00
2023-05-23T00:35:29.272Z,13.80
2023-05-23T00:37:56.628Z,13.50
2023-05-23T00:40:23.796Z,13.50
2023-05-23T00:42:50.638Z,13.30
2023-05-23T00:45:18.422Z,13.30
2023-05-23T00:47:46.261Z,13.30
2023-05-23T00:50:16.853Z,13.40
2023-05-23T00:52:45.678Z,13.50
2023-05-23T00:55:13.067Z,13.40
2023-05-23T00:57:41.532Z,13.40
2023-05-23T01:00:12.317Z,13.50
2023-05-23T01:02:47.244Z,13.50
2023-05-23T01:05:17.661Z,13.60
2023-05-23T01:07:49.229Z,13.70
2023-05-23T01:10:26.016Z,13.60
2023-05-23T01:13:04.434Z,13.40
2023-05-23T01:15:55.965Z,13.50
2023-05-23T01:18:46.581Z,13.40
2023-05-23T01:21:17.446Z,13.40
2023-05-23T01:23:52.450Z,13.30
2023-05-23T01:26:40.415Z,13.40
2023-05-23T01:29:28.426Z,13.40
2023-05-23T01:31:58.375Z,13.30
2023-05-23T01:34:25.298Z,13.30
2023-05-23T01:36:57.678Z,13.30
2023-05-23T01:39:24.609Z,13.30
2023-05-23T01:41:53.300Z,13.40
2023-05-23T01:44:21.597Z,13.50
2023-05-23T01:46:48.752Z,13.60
2023-05-23T01:49:18.532Z,13.70
2023-05-23T01:51:46.481Z,13.70
2023-05-23T01:54:16.943Z,13.70
2023-05-23T01:56:44.219Z,13.70
2023-05-23T01:59:11.551Z,13.60
2023-05-23T02:01:39.711Z,13.60
2023-05-23T02:04:06.917Z,13.60
2023-05-23T02:06:34.352Z,13.60
2023-05-23T02:09:01.163Z,13.50
2023-05-23T02:11:28.009Z,13.40
2023-05-23T02:13:54.806Z,13.40
2023-05-23T02:16:21.785Z,13.60
2023-05-23T02:18:49.231Z,13.70
2023-05-23T02:21:16.128Z,13.60
2023-05-23T02:23:42.899Z,13.40
2023-05-23T02:26:09.654Z,13.40
2023-05-23T02:28:36.565Z,13.50
2023-05-23T02:31:03.445Z,13.50
2023-05-23T02:33:30.331Z,13.60
2023-05-23T02:35:57.170Z,13.60
2023-05-23T02:38:23.982Z,13.60
2023-05-23T02:40:51.852Z,13.60
2023-05-23T02:43:18.744Z,13.70
2023-05-23T02:45:45.750Z,13.70
2023-05-23T02:48:12.534Z,13.60
2023-05-23T02:50:39.538Z,13.60
2023-05-23T02:53:06.346Z,13.60
2023-05-23T02:55:33.104Z,13.60
2023-05-23T02:58:00.185Z,13.60
2023-05-23T03:00:27.559Z,13.90
2023-05-23T03:02:54.459Z,13.80
2023-05-23T03:05:21.436Z,13.60
2023-05-23T03:07:48.290Z,13.60
2023-05-23T03:10:15.412Z,13.60
2023-05-23T03:12:42.570Z,13.50
2023-05-23T03:15:10.603Z,13.40
2023-05-23T03:17:37.456Z,13.40
2023-05-23T03:20:05.264Z,13.40
2023-05-23T03:22:32.096Z,13.50
2023-05-23T03:24:58.930Z,13.40
2023-05-23T03:27:25.785Z,13.40
2023-05-23T03:29:52.630Z,13.40
2023-05-23T03:32:19.536Z,13.30
2023-05-23T03:34:46.544Z,13.20
2023-05-23T03:37:13.411Z,13.20
2023-05-23T03:39:40.455Z,13.40
2023-05-23T03:42:08.017Z,13.40
2023-05-23T03:44:34.844Z,13.50
2023-05-23T03:47:01.688Z,13.60
2023-05-23T03:49:28.533Z,13.60
2023-05-23T03:51:55.380Z,13.70
2023-05-23T03:54:22.237Z,13.70
2023-05-23T03:56:49.167Z,13.70
2023-05-23T03:59:16.020Z,13.70
2023-05-23T04:01:42.906Z,13.70
2023-05-23T04:04:09.882Z,13.70
2023-05-23T04:06:36.797Z,13.70
2023-05-23T04:09:03.713Z,13.60
2023-05-23T04:11:30.557Z,13.50
2023-05-23T04:13:57.382Z,13.40
2023-05-23T04:16:25.966Z,13.40
2023-05-23T04:18:52.915Z,13.40
2023-05-23T04:21:19.954Z,13.50
2023-05-23T04:23:47.184Z,13.60
2023-05-23T04:26:13.966Z,13.70
2023-05-23T04:28:40.787Z,13.70
2023-05-23T04:31:08.172Z,13.60
2023-05-23T04:33:35.152Z,13.70
2023-05-23T04:36:02.581Z,13.80
2023-05-23T04:38:29.370Z,13.80
2023-05-23T04:40:58.027Z,13.90
2023-05-23T04:43:26.657Z,13.90
2023-05-23T04:45:57.835Z,14.10
2023-05-23T04:48:24.921Z,14.30
2023-05-23T04:50:52.690Z,14.30
2023-05-23T04:53:19.531Z,14.30
2023-05-23T04:55:46.527Z,14.30
2023-05-23T04:58:13.753Z,14.40
2023-05-23T05:00:40.719Z,14.30
2023-05-23T05:03:09.922Z,14.10
2023-05-23T05:05:37.313Z,14.10
2023-05-23T05:08:04.228Z,14.00
2023-05-23T05:10:30.980Z,14.10
2023-05-23T05:12:57.816Z,14.00
2023-05-23T05:15:25.040Z,14.10
2023-05-23T05:17:51.864Z,14.20
2023-05-23T05:20:18.691Z,13.90
2023-05-23T05:22:46.306Z,13.70
2023-05-23T05:25:13.176Z,13.70
2023-05-23T05:27:40.477Z,13.60
2023-05-23T05:30:08.912Z,13.60
2023-05-23T05:32:35.905Z,13.70
2023-05-23T05:35:03.777Z,13.70
2023-05-23T05:37:30.686Z,13.70
2023-05-23T05:39:57.515Z,13.70
2023-05-23T05:42:24.361Z,13.70
2023-05-23T05:44:51.192Z,13.50
2023-05-23T05:47:18.048Z,13.40
2023-05-23T05:49:44.791Z,13.40
2023-05-23T05:52:11.636Z,13.40
2023-05-23T05:54:38.411Z,13.60
2023-05-23T05:57:05.437Z,13.50
2023-05-23T05:59:32.692Z,13.60
2023-05-23T06:01:59.690Z,13.80
2023-05-23T06:04:26.541Z,13.70
2023-05-23T06:06:53.379Z,13.70
2023-05-23T06:09:20.148Z,13.80
2023-05-23T06:11:46.950Z,13.80
2023-05-23T06:14:13.915Z,13.90
2023-05-23T06:16:41.425Z,13.90
2023-05-23T06:19:08.603Z,13.90
2023-05-23T06:21:36.313Z,13.60
2023-05-23T06:24:03.165Z,13.40
2023-05-23T06:26:30.001Z,13.40
2023-05-23T06:28:56.800Z,13.40
2023-05-23T06:31:23.671Z,13.50
2023-05-23T06:33:51.178Z,13.30
2023-05-23T06:36:18.063Z,13.20
2023-05-23T06:38:44.827Z,13.20
2023-05-23T06:41:11.641Z,13.20
2023-05-23T06:43:38.489Z,13.40
2023-05-23T06:46:05.606Z,13.40
2023-05-23T06:48:32.570Z,13.40
2023-05-23T06:50:59.652Z,13.40
2023-05-23T06:53:26.415Z,13.50
2023-05-23T06:55:53.191Z,13.50
2023-05-23T06:58:20.047Z,13.50
2023-05-23T07:00:46.990Z,13.60
2023-05-23T07:03:13.812Z,13.50
2023-05-23T07:05:41.355Z,13.70
2023-05-23T07:08:10.809Z,13.70
2023-05-23T07:10:39.216Z,13.70
2023-05-23T07:13:06.120Z,13.70
2023-05-23T07:15:32.881Z,13.70
2023-05-23T07:17:59.727Z,13.60
2023-05-23T07:20:26.904Z,13.80
2023-05-23T07:22:53.734Z,13.90
2023-05-23T07:25:20.541Z,14.00
2023-05-23T07:27:47.486Z,14.20
2023-05-23T07:30:14.421Z,14.20
2023-05-23T07:32:41.268Z,14.30
2023-05-23T07:35:08.449Z,14.10
2023-05-23T07:37:35.309Z,13.90
2023-05-23T07:40:02.140Z,13.70
2023-05-23T07:42:28.937Z,13.60
2023-05-23T07:44:55.789Z,13.60
2023-05-23T07:47:24.283Z,13.90
2023-05-23T07:49:52.312Z,13.90
2023-05-23T07:52:19.356Z,14.00
2023-05-23T07:54:46.119Z,13.90
2023-05-23T07:57:13.075Z,13.90
2023-05-23T07:59:39.983Z,14.20
2023-05-23T08:02:07.246Z,14.40
2023-05-23T08:04:34.185Z,14.50
2023-05-23T08:07:05.698Z,14.60
2023-05-23T08:09:32.932Z,14.60
2023-05-23T08:12:00.253Z,14.80
2023-05-23T08:14:42.358Z,15.00
2023-05-23T08:17:14.705Z,15.10
2023-05-23T08:19:42.164Z,14.90
2023-05-23T08:22:09.148Z,14.80
2023-05-23T08:24:35.959Z,14.80
2023-05-23T08:27:02.766Z,14.60
2023-05-23T08:29:29.616Z,14.20
2023-05-23T08:31:56.600Z,14.40
2023-05-23T08:34:23.489Z,14.50
2023-05-23T08:36:51.139Z,14.40
2023-05-23T08:39:18.201Z,14.40
2023-05-23T08:41:45.385Z,14.60
2023-05-23T08:44:12.922Z,14.90
2023-05-23T08:46:46.291Z,15.00
2023-05-23T08:49:17.754Z,15.00
2023-05-23T08:51:45.614Z,14.90
2023-05-23T08:54:15.749Z,14.90
2023-05-23T08:56:44.023Z,15.10
2023-05-23T08:59:13.003Z,15.20
2023-05-23T09:01:41.478Z,14.90
2023-05-23T09:04:08.717Z,14.80
2023-05-23T09:06:35.620Z,14.90
2023-05-23T09:09:02.575Z,15.00
2023-05-23T09:11:29.396Z,15.20
2023-05-23T09:13:56.325Z,15.40
2023-05-23T09:16:23.394Z,15.30
2023-05-23T09:18:50.345Z,15.30
2023-05-23T09:21:17.253Z,15.50
2023-05-23T09:23:44.167Z,15.80
2023-05-23T09:26:13.309Z,15.70
2023-05-23T09:28:43.537Z,15.40
2023-05-23T09:31:13.186Z,15.20
2023-05-23T09:33:40.943Z,15.30
2023-05-23T09:36:08.110Z,15.10
2023-05-23T09:38:42.053Z,15.10
2023-05-23T09:41:12.373Z,15.10
2023-05-23T09:44:01.334Z,15.00
2023-05-23T09:46:30.745Z,14.90
2023-05-23T09:48:57.543Z,14.90
2023-05-23T09:51:24.611Z,15.00
2023-05-23T09:53:52.310Z,15.10
2023-05-23T09:56:19.988Z,15.30
2023-05-23T09:58:50.833Z,15.40
2023-05-23T10:01:18.431Z,15.30
2023-05-23T10:03:48.763Z,15.20
2023-05-23T10:06:49.781Z,15.30
2023-05-23T10:09:19.043Z,15.10
2023-05-23T10:12:13.332Z,15.10
2023-05-23T10:14:44.435Z,15.00
2023-05-23T10:17:19.654Z,15.10
2023-05-23T10:19:56.061Z,15.00
2023-05-23T10:22:23.851Z,14.90
2023-05-23T10:24:51.023Z,14.90
2023-05-23T10:27:18.122Z,14.90
2023-05-23T10:29:45.347Z,15.10
2023-05-23T10:32:12.855Z,15.10
2023-05-23T10:35:05.735Z,15.00
2023-05-23T10:37:47.576Z,14.90
2023-05-23T10:40:38.729Z,15.00
2023-05-23T10:43:28.002Z,15.10
2023-05-23T10:45:55.186Z,15.20
2023-05-23T10:48:33.939Z,15.30
2023-05-23T10:51:08.248Z,15.50
2023-05-23T10:53:37.250Z,15.60
2023-05-23T10:56:11.953Z,15.70
2023-05-23T10:58:41.674Z,15.90
2023-05-23T11:01:16.772Z,15.70
2023-05-23T11:03:46.405Z,15.60
2023-05-23T11:06:35.975Z,15.70
2023-05-23T11:09:13.132Z,15.80
2023-05-23T11:11:58.058Z,15.90
2023-05-23T11:14:37.997Z,15.90
2023-05-23T11:17:20.438Z,15.80
2023-05-23T11:20:02.346Z,16.00
2023-05-23T11:22:32.226Z,16.20
2023-05-23T11:25:00.414Z,16.20
2023-05-23T11:27:32.274Z,16.40
2023-05-23T11:30:00.111Z,16.50
2023-05-23T11:32:30.061Z,16.60
2023-05-23T11:35:00.553Z,16.50
2023-05-23T11:37:28.286Z,16.40
2023-05-23T11:39:55.189Z,16.30
2023-05-23T11:42:23.682Z,16.00
2023-05-23T11:44:52.578Z,15.80
2023-05-23T11:47:20.308Z,16.20
2023-05-23T11:49:48.413Z,16.40
2023-05-23T11:52:15.574Z,16.60
2023-05-23T11:54:43.560Z,16.90
2023-05-23T11:57:11.104Z,16.90
2023-05-23T11:59:38.848Z,16.70
2023-05-23T12:02:07.816Z,16.50
2023-05-23T12:04:37.667Z,16.30
2023-05-23T12:07:07.896Z,16.10
2023-05-23T12:09:43.054Z,16.10
2023-05-23T12:12:10.213Z,16.20
2023-05-23T12:14:40.196Z,16.30
2023-05-23T12:17:07.062Z,16.30
2023-05-23T12:19:33.845Z,16.20
2023-05-23T12:22:08.858Z,16.30
2023-05-23T12:24:35.954Z,16.30
2023-05-23T12:27:04.032Z,16.40
2023-05-23T12:29:35.917Z,16.40
2023-05-23T12:32:04.429Z,16.50
2023-05-23T12:34:31.652Z,16.40
2023-05-23T12:37:17.515Z,16.60
2023-05-23T12:39:46.307Z,16.80
2023-05-23T12:42:13.463Z,16.80
2023-05-23T12:44:42.206Z,16.70
2023-05-23T12:47:09.205Z,16.60
2023-05-23T12:49:36.113Z,16.50
2023-05-23T12:52:02.921Z,16.60
2023-05-23T12:54:29.694Z,16.80
2023-05-23T12:56:56.532Z,16.90
2023-05-23T12:59:23.606Z,17.00
2023-05-23T13:01:50.377Z,17.30
2023-05-23T13:04:17.342Z,17.30
2023-05-23T13:06:44.303Z,17.30
2023-05-23T13:09:11.109Z,17.10
2023-05-23T13:11:37.973Z,17.10
2023-05-23T13:14:04.814Z,17.10
2023-05-23T13:16:31.809Z,17.30
2023-05-23T13:18:58.716Z,17.20
2023-05-23T13:21:25.829Z,17.00
2023-05-23T13:23:52.598Z,17.00
2023-05-23T13:26:19.440Z,17.20
2023-05-23T13:28:46.256Z,17.30
2023-05-23T13:31:13.111Z,17.60
2023-05-23T13:33:39.940Z,17.60
2023-05-23T13:36:07.059Z,17.50
2023-05-23T13:38:33.880Z,17.40
2023-05-23T13:41:00.746Z,17.20
2023-05-23T13:43:27.664Z,17.30
2023-05-23T13:45:54.527Z,17.20
2023-05-23T13:48:21.389Z,17.30
2023-05-23T13:50:48.212Z,17.40
2023-05-23T13:53:16.842Z,17.40
2023-05-23T13:55:45.383Z,17.50
2023-05-23T13:58:12.834Z,17.50
2023-05-23T14:00:40.375Z,17.40
2023-05-23T14:03:08.862Z,17.40
2023-05-23T14:05:36.617Z,17.40
2023-05-23T14:08:04.561Z,17.30
2023-05-23T14:10:33.339Z,16.90
2023-05-23T14:13:00.373Z,16.80
2023-05-23T14:15:28.143Z,16.90
2023-05-23T14:17:56.095Z,17.00
2023-05-23T14:20:23.942Z,17.10
2023-05-23T14:22:51.874Z,17.30
2023-05-23T14:25:19.231Z,17.30
2023-05-23T14:27:46.401Z,17.40
2023-05-23T14:30:13.780Z,17.40
2023-05-23T14:32:41.526Z,17.50
2023-05-23T14:35:10.715Z,17.50
2023-05-23T14:37:38.941Z,17.70
2023-05-23T14:40:06.929Z,17.80
2023-05-23T14:42:34.285Z,17.30
2023-05-23T14:45:03.227Z,17.10
2023-05-23T14:47:30.894Z,17.10
2023-05-23T14:49:57.792Z,17.30
2023-05-23T14:52:24.862Z,17.10
2023-05-23T14:54:51.885Z,17.30
2023-05-23T14:57:18.806Z,17.40
2023-05-23T14:59:46.596Z,17.40
2023-05-23T15:02:13.725Z,17.20
2023-05-23T15:04:40.880Z,17.40
2023-05-23T15:07:07.698Z,17.50
2023-05-23T15:09:34.526Z,17.70
2023-05-23T15:12:01.587Z,17.30
2023-05-23T15:14:32.069Z,16.70
2023-05-23T15:17:07.528Z,17.00
2023-05-23T15:19:36.230Z,17.40
2023-05-23T15:22:04.988Z,17.30
2023-05-23T15:24:32.436Z,17.00
2023-05-23T15:27:11.760Z,17.20
2023-05-23T15:29:46.295Z,17.20
2023-05-23T15:32:13.182Z,17.20
2023-05-23T15:34:40.443Z,17.40
2023-05-23T15:37:07.334Z,17.30
2023-05-23T15:39:34.165Z,17.20
2023-05-23T15:42:01.066Z,17.30
2023-05-23T15:44:28.021Z,17.30
2023-05-23T15:46:55.041Z,16.90
2023-05-23T15:49:26.514Z,17.00
2023-05-23T15:51:55.162Z,16.90
2023-05-23T15:54:22.368Z,16.90
2023-05-23T15:56:49.257Z,16.60
2023-05-23T15:59:16.080Z,16.80
2023-05-23T16:01:43.094Z,16.90
2023-05-23T16:04:10.055Z,16.80
2023-05-23T16:06:38.399Z,17.10
2023-05-23T16:09:05.313Z,17.20
2023-05-23T16:11:32.117Z,17.10
2023-05-23T16:13:59.023Z,17.10
2023-05-23T16:16:25.883Z,17.10
2023-05-23T16:18:53.349Z,16.90
2023-05-23T16:21:21.030Z,16.80
2023-05-23T16:23:49.041Z,17.00
2023-05-23T16:26:18.244Z,17.10
2023-05-23T16:28:45.466Z,16.90
2023-05-23T16:31:16.793Z,16.60
2023-05-23T16:33:44.868Z,16.20
2023-05-23T16:36:11.745Z,16.20
2023-05-23T16:38:38.703Z,16.40
2023-05-23T16:41:05.509Z,16.60
2023-05-23T16:43:33.387Z,16.40
2023-05-23T16:46:00.370Z,16.20
2023-05-23T16:48:27.168Z,16.00
2023-05-23T16:50:55.186Z,16.10
2023-05-23T16:53:22.228Z,16.20
2023-05-23T16:55:49.388Z,16.40
2023-05-23T16:58:18.108Z,16.50
2023-05-23T17:00:46.890Z,16.50
2023-05-23T17:03:13.798Z,16.30
2023-05-23T17:05:41.183Z,16.10
2023-05-23T17:08:08.245Z,15.90
2023-05-23T17:10:36.211Z,15.90
2023-05-23T17:13:03.105Z,15.80
2023-05-23T17:15:30.127Z,16.00
2023-05-23T17:17:57.044Z,16.10
2023-05-23T17:20:26.708Z,15.80
2023-05-23T17:22:53.744Z,15.70
2023-05-23T17:25:20.904Z,15.60
2023-05-23T17:27:47.750Z,15.40
2023-05-23T17:30:18.275Z,15.10
2023-05-23T17:32:46.700Z,15.00
2023-05-23T17:35:13.879Z,15.00
2023-05-23T17:37:43.437Z,15.10
2023-05-23T17:40:11.923Z,15.10
2023-05-23T17:42:42.087Z,15.10
2023-05-23T17:45:09.868Z,15.20
2023-05-23T17:47:36.986Z,15.20
2023-05-23T17:50:07.720Z,15.10
2023-05-23T17:52:35.154Z,15.00
2023-05-23T17:55:02.019Z,15.10
2023-05-23T17:57:31.133Z,15.20
2023-05-23T17:59:58.481Z,15.10
2023-05-23T18:02:25.649Z,15.00
2023-05-23T18:04:52.834Z,15.00
2023-05-23T18:07:19.891Z,14.90
2023-05-23T18:09:47.256Z,14.90
2023-05-23T18:12:14.970Z,14.80
2023-05-23T18:14:42.219Z,14.80
2023-05-23T18:17:09.898Z,14.80
2023-05-23T18:19:36.907Z,14.80
2023-05-23T18:22:04.057Z,14.70
2023-05-23T18:24:30.810Z,14.60
2023-05-23T18:26:58.233Z,14.70
2023-05-23T18:29:25.150Z,14.50
2023-05-23T18:31:51.933Z,14.60
2023-05-23T18:34:18.758Z,14.70
2023-05-23T18:36:45.722Z,14.50
2023-05-23T18:39:12.759Z,14.40
2023-05-23T18:41:39.856Z,14.20
2023-05-23T18:44:06.724Z,14.20
2023-05-23T18:46:33.618Z,14.20
2023-05-23T18:49:00.781Z,14.30
2023-05-23T18:51:27.762Z,14.20
2023-05-23T18:53:54.566Z,13.90
2023-05-23T18:56:21.945Z,13.90
2023-05-23T18:58:50.042Z,13.80
2023-05-23T19:01:16.996Z,13.80
2023-05-23T19:03:45.817Z,13.70
2023-05-23T19:06:12.880Z,13.70
2023-05-23T19:08:42.735Z,13.60
2023-05-23T19:11:10.815Z,13.60
2023-05-23T19:13:37.683Z,13.30
2023-05-23T19:16:04.792Z,13.30
2023-05-23T19:18:32.195Z,13.30
2023-05-23T19:20:59.078Z,13.30
2023-05-23T19:23:25.903Z,13.30
2023-05-23T19:25:52.685Z,13.40
2023-05-23T19:28:19.482Z,13.30
2023-05-23T19:30:46.361Z,13.40
2023-05-23T19:33:13.295Z,13.40
2023-05-23T19:35:40.057Z,13.20
2023-05-23T19:38:06.820Z,13.10
2023-05-23T19:40:33.623Z,13.10
2023-05-23T19:43:00.607Z,13.10
2023-05-23T19:45:28.698Z,13.00
2023-05-23T19:47:57.829Z,13.20
2023-05-23T19:50:24.837Z,13.40
2023-05-23T19:52:51.647Z,13.60
2023-05-23T19:55:18.518Z,13.60
2023-05-23T19:57:45.520Z,13.40
2023-05-23T20:00:14.747Z,13.40
2023-05-23T20:02:41.624Z,13.40
2023-05-23T20:05:08.872Z,13.50
2023-05-23T20:07:36.537Z,13.70
2023-05-23T20:10:04.152Z,13.70
2023-05-23T20:12:31.053Z,13.50
2023-05-23T20:14:57.889Z,13.50
2023-05-23T20:17:24.769Z,13.40
2023-05-23T20:19:51.609Z,13.30
2023-05-23T20:22:18.477Z,13.30
2023-05-23T20:24:45.509Z,13.30
2023-05-23T20:27:12.324Z,13.40
2023-05-23T20:29:39.202Z,13.30
2023-05-23T20:32:06.859Z,13.40
2023-05-23T20:34:33.966Z,13.10
2023-05-23T20:37:01.637Z,13.20
2023-05-23T20:39:28.508Z,13.20
2023-05-23T20:41:55.298Z,13.10
2023-05-23T20:44:22.105Z,13.00
2023-05-23T20:46:49.041Z,12.90
2023-05-23T20:49:16.637Z,12.80
2023-05-23T20:51:43.440Z,12.90
2023-05-23T20:54:10.364Z,12.90
2023-05-23T20:56:37.353Z,12.90
2023-05-23T20:59:04.134Z,12.80
2023-05-23T21:01:31.148Z,12.90
2023-05-23T21:03:58.156Z,12.90
2023-05-23T21:06:24.907Z,12.80
2023-05-23T21:08:51.779Z,12.70
2023-05-23T21:11:18.593Z,12.70
2023-05-23T21:13:45.441Z,12.70
2023-05-23T21:16:14.540Z,12.60
2023-05-23T21:18:41.655Z,12.60
2023-05-23T21:21:08.441Z,12.60
2023-05-23T21:23:35.446Z,12.60
2023-05-23T21:26:02.458Z,12.40
2023-05-23T21:28:29.319Z,12.40
2023-05-23T21:30:56.620Z,12.30
2023-05-23T21:33:23.501Z,12.30
2023-05-23T21:35:51.112Z,12.30
2023-05-23T21:38:17.958Z,12.30
2023-05-23T21:40:45.027Z,12.30
2023-05-23T21:43:12.046Z,12.20
2023-05-23T21:45:38.933Z,12.30
2023-05-23T21:48:05.880Z,12.40
2023-05-23T21:50:32.767Z,12.40
2023-05-23T21:52:59.582Z,12.30
2023-05-23T21:55:27.290Z,12.30
2023-05-23T21:57:54.080Z,12.30
2023-05-23T22:00:22.738Z,12.10
2023-05-23T22:02:49.752Z,12.00
2023-05-23T22:05:17.146Z,12.10
2023-05-23T22:07:43.932Z,12.10
2023-05-23T22:10:11.270Z,12.20
2023-05-23T22:12:38.040Z,12.20
2023-05-23T22:15:06.399Z,12.30
2023-05-23T22:17:34.512Z,12.10
2023-05-23T22:20:05.242Z,12.10
2023-05-23T22:22:32.262Z,12.10
2023-05-23T22:24:59.046Z,12.00
2023-05-23T22:27:25.871Z,12.00
2023-05-23T22:29:52.732Z,11.90
2023-05-23T22:32:19.528Z,11.80
2023-05-23T22:34:46.373Z,11.80
2023-05-23T22:37:13.227Z,11.70
2023-05-23T22:39:39.986Z,11.80
2023-05-23T22:42:06.878Z,11.80
2023-05-23T22:44:33.695Z,11.90
2023-05-23T22:47:00.516Z,11.90
2023-05-23T22:49:30.073Z,12.00
2023-05-23T22:51:57.805Z,11.90
2023-05-23T22:54:24.624Z,12.00
2023-05-23T22:56:51.415Z,12.00
2023-05-23T22:59:18.286Z,12.10
2023-05-23T23:01:46.426Z,12.00
2023-05-23T23:04:13.233Z,11.50
2023-05-23T23:06:43.194Z,11.00
2023-05-23T23:09:10.127Z,10.70
2023-05-23T23:11:37.062Z,10.90
2023-05-23T23:14:03.915Z,11.30
2023-05-23T23:16:30.881Z,11.30
2023-05-23T23:18:58.796Z,11.40
2023-05-23T23:21:25.867Z,11.50
2023-05-23T23:23:52.707Z,11.60
2023-05-23T23:26:19.548Z,11.80
2023-05-23T23:28:46.328Z,11.70
2023-05-23T23:31:13.119Z,11.10
2023-05-23T23:33:40.026Z,10.80
2023-05-23T23:36:07.073Z,10.90
2023-05-23T23:38:34.006Z,11.10
2023-05-23T23:41:00.809Z,11.30
2023-05-23T23:43:27.617Z,11.20
2023-05-23T23:45:54.517Z,11.30
2023-05-23T23:48:21.330Z,11.30
2023-05-23T23:50:48.127Z,10.80
2023-05-23T23:53:14.919Z,10.40
2023-05-23T23:55:41.700Z,10.00
2023-05-23T23:58:08.517Z,9.60
